createdAt,value
2022-11-17T00:01:27.898Z,99011.38
2022-11-17T00:04:30.557Z,99004.28
2022-11-17T00:07:32.982Z,99003.31
2022-11-17T00:10:35.780Z,99014.03
2022-11-17T00:13:56.722Z,99017.44
2022-11-17T00:17:03.407Z,99012.22
2022-11-17T00:20:24.544Z,99018.22
2022-11-17T00:23:47.029Z,99014.31
2022-11-17T00:27:01.668Z,99007.59
2022-11-17T00:30:04.555Z,99006.97
2022-11-17T00:33:27.239Z,99008.59
2022-11-17T00:36:29.710Z,99012.03
2022-11-17T00:39:32.260Z,99023.41
2022-11-17T00:42:34.696Z,99020.91
2022-11-17T00:45:36.957Z,99019.41
2022-11-17T00:48:39.457Z,99010.47
2022-11-17T00:51:42.133Z,99012.56
2022-11-17T00:54:44.658Z,99003.13
2022-11-17T00:57:46.930Z,99001.16
2022-11-17T01:00:49.610Z,99002.00
2022-11-17T01:04:02.773Z,98997.72
2022-11-17T01:07:05.546Z,98992.97
2022-11-17T01:10:08.191Z,99001.50
2022-11-17T01:13:10.673Z,98998.84
2022-11-17T01:16:14.458Z,98986.47
2022-11-17T01:19:17.437Z,98986.72
2022-11-17T01:22:19.608Z,98974.41
2022-11-17T01:25:22.110Z,98965.75
2022-11-17T01:28:24.642Z,98960.84
2022-11-17T01:31:29.090Z,98961.69
2022-11-17T01:34:31.321Z,98959.31
2022-11-17T01:37:33.938Z,98960.03
2022-11-17T01:40:36.215Z,98957.06
2022-11-17T01:43:40.484Z,98959.03
2022-11-17T01:46:42.842Z,98966.00
2022-11-17T01:49:45.849Z,98966.00
2022-11-17T01:52:50.401Z,98967.50
2022-11-17T01:55:59.634Z,98960.03
2022-11-17T01:59:05.530Z,98973.19
2022-11-17T02:02:08.161Z,98982.47
2022-11-17T02:05:22.762Z,98987.53
2022-11-17T02:08:27.902Z,98985.97
2022-11-17T02:11:36.050Z,98986.13
2022-11-17T02:14:39.375Z,98983.59
2022-11-17T02:17:42.575Z,98982.09
2022-11-17T02:20:55.563Z,98987.16
2022-11-17T02:24:10.061Z,98984.44
2022-11-17T02:27:38.281Z,98989.47
2022-11-17T02:30:58.287Z,98986.13
2022-11-17T02:34:10.033Z,98988.97
2022-11-17T02:37:18.640Z,98980.44
2022-11-17T02:40:21.205Z,98976.81
2022-11-17T02:43:46.242Z,98968.78
2022-11-17T02:46:52.071Z,98959.44
2022-11-17T02:49:56.974Z,98962.97
2022-11-17T02:52:59.452Z,98964.69
2022-11-17T02:56:02.258Z,98963.97
2022-11-17T02:59:05.350Z,98955.53
2022-11-17T03:02:19.875Z,98944.88
2022-11-17T03:05:27.655Z,98943.34
2022-11-17T03:08:36.164Z,98950.34
2022-11-17T03:11:57.438Z,98961.81
2022-11-17T03:15:13.370Z,98965.16
2022-11-17T03:18:15.946Z,98945.53
2022-11-17T03:21:21.802Z,98933.34
2022-11-17T03:24:33.714Z,98930.72
2022-11-17T03:27:38.435Z,98926.75
2022-11-17T03:30:43.308Z,98930.75
2022-11-17T03:33:48.566Z,98920.81
2022-11-17T03:36:53.892Z,98914.34
2022-11-17T03:39:59.681Z,98923.16
2022-11-17T03:43:05.271Z,98930.47
2022-11-17T03:46:10.510Z,98940.81
2022-11-17T03:49:23.526Z,98948.87
2022-11-17T03:52:26.662Z,98950.50
2022-11-17T03:55:33.563Z,98970.47
2022-11-17T03:58:37.373Z,98977.97
2022-11-17T04:01:40.016Z,98976.94
2022-11-17T04:05:01.376Z,98980.44
2022-11-17T04:08:03.799Z,98990.31
2022-11-17T04:11:25.018Z,98988.44
2022-11-17T04:14:45.867Z,98986.63
2022-11-17T04:17:48.368Z,98988.81
2022-11-17T04:20:54.641Z,98981.19
2022-11-17T04:23:57.945Z,98976.72
2022-11-17T04:27:19.024Z,98970.47
2022-11-17T04:30:21.531Z,98972.25
2022-11-17T04:33:23.781Z,98979.13
2022-11-17T04:36:27.641Z,98973.19
2022-11-17T04:39:29.916Z,98975.19
2022-11-17T04:42:32.401Z,98983.00
2022-11-17T04:45:34.641Z,98978.59
2022-11-17T04:48:37.160Z,98973.41
2022-11-17T04:51:39.501Z,98980.59
2022-11-17T04:54:41.989Z,98977.63
2022-11-17T04:57:44.263Z,98999.88
2022-11-17T05:00:46.910Z,99009.38
2022-11-17T05:03:50.112Z,99005.88
2022-11-17T05:06:52.656Z,98999.12
2022-11-17T05:09:55.009Z,99001.63
2022-11-17T05:13:17.845Z,99006.22
2022-11-17T05:16:39.481Z,99005.94
2022-11-17T05:19:46.238Z,99004.88
2022-11-17T05:23:07.243Z,98997.09
2022-11-17T05:26:09.823Z,99006.41
2022-11-17T05:29:13.402Z,99008.09
2022-11-17T05:32:16.045Z,99002.91
2022-11-17T05:35:18.549Z,99004.97
2022-11-17T05:38:21.038Z,99010.28
2022-11-17T05:41:23.807Z,99003.16
2022-11-17T05:44:26.277Z,98999.72
2022-11-17T05:47:28.471Z,99004.97
2022-11-17T05:50:31.085Z,99013.28
2022-11-17T05:53:36.629Z,99010.69
2022-11-17T05:57:05.720Z,99021.66
2022-11-17T06:00:08.865Z,99013.00
2022-11-17T06:03:26.598Z,99030.12
2022-11-17T06:06:30.076Z,99029.94
2022-11-17T06:09:34.299Z,99032.44
2022-11-17T06:12:36.837Z,99039.38
2022-11-17T06:15:39.490Z,99045.34
2022-11-17T06:18:46.706Z,99040.81
2022-11-17T06:22:11.103Z,99034.06
2022-11-17T06:25:12.082Z,99034.81
2022-11-17T06:28:17.478Z,99039.31
2022-11-17T06:31:20.356Z,99042.78
2022-11-17T06:34:22.637Z,99038.22
2022-11-17T06:37:25.344Z,99033.47
2022-11-17T06:40:27.838Z,99040.09
2022-11-17T06:43:31.245Z,99036.84
2022-11-17T06:46:38.105Z,99042.25
2022-11-17T06:49:40.628Z,99039.16
2022-11-17T06:52:42.906Z,99041.91
2022-11-17T06:56:00.065Z,99047.63
2022-11-17T06:59:02.441Z,99053.34
2022-11-17T07:02:05.017Z,99049.13
2022-11-17T07:05:07.544Z,99055.63
2022-11-17T07:08:10.496Z,99058.22
2022-11-17T07:11:14.925Z,99057.97
2022-11-17T07:14:17.475Z,99059.38
2022-11-17T07:17:19.708Z,99059.12
2022-11-17T07:20:22.278Z,99055.87
2022-11-17T07:23:24.556Z,99050.28
2022-11-17T07:26:27.160Z,99057.88
2022-11-17T07:29:30.857Z,99054.69
2022-11-17T07:32:33.982Z,99064.59
2022-11-17T07:35:37.135Z,99051.34
2022-11-17T07:38:40.397Z,99055.66
2022-11-17T07:41:42.994Z,99049.72
2022-11-17T07:44:45.921Z,99045.97
2022-11-17T07:47:58.818Z,99057.91
2022-11-17T07:51:01.490Z,99056.63
2022-11-17T07:54:03.973Z,99054.34
2022-11-17T07:57:06.537Z,99059.94
2022-11-17T08:00:09.319Z,99064.00
2022-11-17T08:03:14.193Z,99059.25
2022-11-17T08:06:17.064Z,99052.50
2022-11-17T08:09:19.540Z,99061.28
2022-11-17T08:12:22.205Z,99067.66
2022-11-17T08:15:24.478Z,99059.53
2022-11-17T08:18:27.492Z,99066.62
2022-11-17T08:21:29.686Z,99073.56
2022-11-17T08:24:32.178Z,99081.63
2022-11-17T08:27:35.142Z,99081.16
2022-11-17T08:30:37.667Z,99077.31
2022-11-17T08:33:39.961Z,99082.66
2022-11-17T08:36:42.543Z,99083.50
2022-11-17T08:39:44.748Z,99077.16
2022-11-17T08:42:47.422Z,99088.91
2022-11-17T08:45:49.564Z,99093.81
2022-11-17T08:48:56.930Z,99090.12
2022-11-17T08:52:01.916Z,99090.28
2022-11-17T08:55:05.871Z,99105.03
2022-11-17T08:58:08.629Z,99113.44
2022-11-17T09:01:12.224Z,99112.75
2022-11-17T09:04:14.659Z,99122.22
2022-11-17T09:07:17.794Z,99113.81
2022-11-17T09:10:20.257Z,99110.75
2022-11-17T09:13:22.779Z,99112.69
2022-11-17T09:16:25.344Z,99117.28
2022-11-17T09:19:28.024Z,99129.03
2022-11-17T09:22:30.459Z,99125.09
2022-11-17T09:25:33.045Z,99134.97
2022-11-17T09:28:35.817Z,99139.16
2022-11-17T09:31:39.227Z,99141.88
2022-11-17T09:34:41.661Z,99135.22
2022-11-17T09:37:44.338Z,99131.81
2022-11-17T09:40:46.584Z,99131.06
2022-11-17T09:44:09.394Z,99138.88
2022-11-17T09:47:23.684Z,99120.56
2022-11-17T09:50:37.252Z,99118.50
2022-11-17T09:53:45.961Z,99107.91
2022-11-17T09:56:49.638Z,99111.28
2022-11-17T10:00:04.796Z,99109.03
2022-11-17T10:03:26.946Z,99100.59
2022-11-17T10:06:30.949Z,99099.31
2022-11-17T10:09:36.187Z,99094.37
2022-11-17T10:12:44.577Z,99093.63
2022-11-17T10:15:48.460Z,99105.03
2022-11-17T10:18:51.009Z,99104.06
2022-11-17T10:21:58.941Z,99106.91
2022-11-17T10:25:01.532Z,99104.56
2022-11-17T10:28:04.533Z,99106.91
2022-11-17T10:31:14.845Z,99100.84
2022-11-17T10:34:38.871Z,99099.59
2022-11-17T10:38:12.849Z,99106.22
2022-11-17T10:41:20.179Z,99108.16
2022-11-17T10:44:25.164Z,99104.47
2022-11-17T10:47:30.391Z,99116.81
2022-11-17T10:50:33.105Z,99109.34
2022-11-17T10:53:42.880Z,99102.88
2022-11-17T10:56:49.735Z,99112.78
2022-11-17T10:59:57.772Z,99115.47
2022-11-17T11:03:14.792Z,99117.37
2022-11-17T11:06:20.244Z,99120.81
2022-11-17T11:09:23.130Z,99126.34
2022-11-17T11:12:32.761Z,99114.53
2022-11-17T11:15:36.330Z,99109.56
2022-11-17T11:18:39.131Z,99112.19
2022-11-17T11:22:00.523Z,99111.94
2022-11-17T11:25:02.682Z,99109.59
2022-11-17T11:28:23.980Z,99110.84
2022-11-17T11:31:32.578Z,99117.37
2022-11-17T11:34:54.002Z,99116.56
2022-11-17T11:37:59.183Z,99113.53
2022-11-17T11:41:14.672Z,99112.53
2022-11-17T11:44:19.729Z,99122.50
2022-11-17T11:47:22.229Z,99126.44
2022-11-17T11:50:31.480Z,99113.59
2022-11-17T11:53:49.149Z,99116.78
2022-11-17T11:56:51.739Z,99110.50
2022-11-17T12:00:05.719Z,99112.09
2022-11-17T12:03:21.214Z,99103.97
2022-11-17T12:06:42.054Z,99111.25
2022-11-17T12:09:48.055Z,99107.03
2022-11-17T12:12:51.171Z,99116.53
2022-11-17T12:16:13.383Z,99120.22
2022-11-17T12:19:34.651Z,99116.59
2022-11-17T12:22:36.917Z,99115.06
2022-11-17T12:25:49.036Z,99110.09
2022-11-17T12:29:24.543Z,99114.09
2022-11-17T12:32:46.029Z,99116.00
2022-11-17T12:36:08.175Z,99122.22
2022-11-17T12:39:30.881Z,99120.91
2022-11-17T12:42:34.368Z,99128.91
2022-11-17T12:45:54.313Z,99129.81
2022-11-17T12:48:58.491Z,99132.03
2022-11-17T12:52:04.638Z,99130.59
2022-11-17T12:55:06.991Z,99127.03
2022-11-17T12:58:15.223Z,99126.69
2022-11-17T13:01:37.627Z,99122.28
2022-11-17T13:04:49.322Z,99127.62
2022-11-17T13:08:08.939Z,99133.06
2022-11-17T13:11:15.076Z,99124.00
2022-11-17T13:14:17.819Z,99126.69
2022-11-17T13:17:22.456Z,99129.22
2022-11-17T13:20:26.973Z,99131.78
2022-11-17T13:23:30.758Z,99126.56
2022-11-17T13:26:38.203Z,99134.59
2022-11-17T13:29:40.743Z,99135.38
2022-11-17T13:32:43.416Z,99144.72
2022-11-17T13:35:45.958Z,99147.81
2022-11-17T13:38:49.647Z,99150.03
2022-11-17T13:41:52.817Z,99153.03
2022-11-17T13:44:56.192Z,99151.69
2022-11-17T13:47:59.485Z,99154.81
2022-11-17T13:51:22.178Z,99153.78
2022-11-17T13:54:24.974Z,99155.63
2022-11-17T13:57:27.917Z,99157.47
2022-11-17T14:00:31.395Z,99154.91
2022-11-17T14:03:36.563Z,99152.97
2022-11-17T14:06:55.507Z,99148.09
2022-11-17T14:10:34.316Z,99146.09
2022-11-17T14:13:39.399Z,99152.72
2022-11-17T14:16:42.175Z,99152.72
2022-11-17T14:19:45.225Z,99151.41
2022-11-17T14:23:05.924Z,99150.72
2022-11-17T14:26:26.253Z,99150.78
2022-11-17T14:29:29.487Z,99139.25
2022-11-17T14:32:32.436Z,99143.97
2022-11-17T14:35:35.164Z,99142.38
2022-11-17T14:38:37.420Z,99139.59
2022-11-17T14:41:41.735Z,99146.50
2022-11-17T14:44:44.024Z,99148.25
2022-11-17T14:47:46.612Z,99149.09
2022-11-17T14:50:55.110Z,99157.63
2022-11-17T14:53:58.076Z,99155.19
2022-11-17T14:57:00.312Z,99146.78
2022-11-17T15:00:03.957Z,99153.19
2022-11-17T15:03:06.382Z,99154.34
2022-11-17T15:06:09.816Z,99148.91
2022-11-17T15:09:13.993Z,99146.69
2022-11-17T15:12:16.566Z,99136.66
2022-11-17T15:15:18.844Z,99134.25
2022-11-17T15:18:21.395Z,99135.16
2022-11-17T15:21:23.746Z,99144.62
2022-11-17T15:24:26.227Z,99149.66
2022-11-17T15:27:28.428Z,99156.63
2022-11-17T15:30:31.253Z,99161.84
2022-11-17T15:33:33.524Z,99161.81
2022-11-17T15:36:36.200Z,99147.22
2022-11-17T15:39:38.505Z,99145.44
2022-11-17T15:42:41.006Z,99141.31
2022-11-17T15:45:43.266Z,99149.47
2022-11-17T15:48:46.887Z,99145.25
2022-11-17T15:51:49.257Z,99149.75
2022-11-17T15:54:51.828Z,99143.03
2022-11-17T15:57:54.947Z,99136.25
2022-11-17T16:01:11.493Z,99135.31
2022-11-17T16:04:17.446Z,99130.97
2022-11-17T16:07:19.693Z,99129.22
2022-11-17T16:10:22.393Z,99133.56
2022-11-17T16:13:24.584Z,99116.28
2022-11-17T16:16:28.908Z,99120.75
2022-11-17T16:19:32.508Z,99114.56
2022-11-17T16:22:35.035Z,99125.78
2022-11-17T16:25:41.276Z,99129.88
2022-11-17T16:28:44.077Z,99119.25
2022-11-17T16:31:46.772Z,99111.31
2022-11-17T16:34:49.277Z,99118.19
2022-11-17T16:37:51.816Z,99126.75
2022-11-17T16:40:54.259Z,99132.47
2022-11-17T16:43:56.602Z,99157.69
2022-11-17T16:46:59.206Z,99160.78
2022-11-17T16:50:02.109Z,99164.03
2022-11-17T16:53:04.807Z,99175.50
2022-11-17T16:56:08.669Z,99174.19
2022-11-17T16:59:12.117Z,99172.59
2022-11-17T17:02:14.396Z,99181.22
2022-11-17T17:05:16.889Z,99175.31
2022-11-17T17:08:19.108Z,99187.94
2022-11-17T17:11:21.864Z,99187.25
2022-11-17T17:14:24.059Z,99197.78
2022-11-17T17:17:26.694Z,99200.59
2022-11-17T17:20:29.056Z,99205.25
2022-11-17T17:23:32.374Z,99210.53
2022-11-17T17:26:35.924Z,99190.22
2022-11-17T17:29:38.476Z,99197.16
2022-11-17T17:32:40.717Z,99196.94
2022-11-17T17:35:43.270Z,99196.38
2022-11-17T17:38:50.162Z,99203.41
2022-11-17T17:41:56.102Z,99202.28
2022-11-17T17:44:58.338Z,99185.56
2022-11-17T17:48:01.151Z,99191.16
2022-11-17T17:51:04.648Z,99186.81
2022-11-17T17:54:07.519Z,99178.09
2022-11-17T17:57:10.545Z,99177.94
2022-11-17T18:00:13.645Z,99181.69
2022-11-17T18:03:16.157Z,99185.06
2022-11-17T18:06:19.395Z,99191.09
2022-11-17T18:09:21.961Z,99186.44
2022-11-17T18:12:24.219Z,99189.97
2022-11-17T18:15:26.731Z,99189.62
2022-11-17T18:18:29.163Z,99190.63
2022-11-17T18:21:32.180Z,99184.69
2022-11-17T18:24:34.479Z,99172.91
2022-11-17T18:27:37.147Z,99169.41
2022-11-17T18:30:39.323Z,99167.72
2022-11-17T18:33:45.110Z,99162.63
2022-11-17T18:36:47.919Z,99156.63
2022-11-17T18:39:50.498Z,99156.72
2022-11-17T18:42:52.719Z,99155.50
2022-11-17T18:45:59.836Z,99155.50
2022-11-17T18:49:02.195Z,99139.28
2022-11-17T18:52:05.300Z,99142.75
2022-11-17T18:55:07.852Z,99143.75
2022-11-17T18:58:10.418Z,99146.94
2022-11-17T19:01:17.373Z,99148.94
2022-11-17T19:04:20.126Z,99154.28
2022-11-17T19:07:22.860Z,99148.25
2022-11-17T19:10:25.724Z,99148.53
2022-11-17T19:13:31.780Z,99146.94
2022-11-17T19:16:41.041Z,99142.16
2022-11-17T19:19:46.140Z,99143.75
2022-11-17T19:22:49.091Z,99143.75
2022-11-17T19:25:51.361Z,99138.56
2022-11-17T19:28:54.876Z,99134.59
2022-11-17T19:31:57.168Z,99130.31
2022-11-17T19:35:11.854Z,99126.25
2022-11-17T19:38:17.021Z,99128.06
2022-11-17T19:41:23.799Z,99134.88
2022-11-17T19:44:26.141Z,99134.25
2022-11-17T19:47:28.718Z,99133.56
2022-11-17T19:50:31.833Z,99143.88
2022-11-17T19:53:34.393Z,99131.50
2022-11-17T19:56:38.227Z,99124.44
2022-11-17T19:59:40.671Z,99129.00
2022-11-17T20:02:42.900Z,99138.53
2022-11-17T20:05:45.525Z,99137.78
2022-11-17T20:08:48.374Z,99125.84
2022-11-17T20:11:50.860Z,99126.47
2022-11-17T20:14:53.188Z,99129.22
2022-11-17T20:17:56.069Z,99131.13
2022-11-17T20:20:58.533Z,99147.69
2022-11-17T20:24:01.865Z,99126.00
2022-11-17T20:27:04.109Z,99113.88
2022-11-17T20:30:10.945Z,99122.59
2022-11-17T20:33:17.077Z,99138.44
2022-11-17T20:36:20.362Z,99151.19
2022-11-17T20:39:22.618Z,99147.84
2022-11-17T20:42:25.208Z,99136.62
2022-11-17T20:45:27.479Z,99146.78
2022-11-17T20:48:31.536Z,99160.03
2022-11-17T20:51:33.783Z,99167.88
2022-11-17T20:54:36.288Z,99166.28
2022-11-17T20:57:38.568Z,99163.06
2022-11-17T21:00:41.079Z,99154.50
2022-11-17T21:03:44.065Z,99145.84
2022-11-17T21:06:46.593Z,99139.56
2022-11-17T21:09:48.744Z,99143.22
2022-11-17T21:12:51.236Z,99146.50
2022-11-17T21:16:03.968Z,99142.16
2022-11-17T21:19:07.028Z,99132.63
2022-11-17T21:22:09.317Z,99134.59
2022-11-17T21:25:11.824Z,99141.53
2022-11-17T21:28:14.586Z,99138.94
2022-11-17T21:31:18.371Z,99132.16
2022-11-17T21:34:20.527Z,99129.34
2022-11-17T21:37:24.277Z,99130.09
2022-11-17T21:40:26.500Z,99147.44
2022-11-17T21:43:29.296Z,99147.25
2022-11-17T21:46:32.508Z,99152.28
2022-11-17T21:49:34.987Z,99151.16
2022-11-17T21:52:37.186Z,99155.56
2022-11-17T21:55:39.757Z,99140.16
2022-11-17T21:58:42.041Z,99137.41
2022-11-17T22:01:44.519Z,99134.13
2022-11-17T22:04:46.978Z,99127.19
2022-11-17T22:07:49.230Z,99131.59
2022-11-17T22:10:51.733Z,99125.78
2022-11-17T22:13:54.024Z,99136.16
2022-11-17T22:16:56.522Z,99142.47
2022-11-17T22:19:58.840Z,99124.53
2022-11-17T22:23:01.406Z,99128.31
2022-11-17T22:26:06.311Z,99134.56
2022-11-17T22:29:11.365Z,99135.06
2022-11-17T22:32:13.660Z,99123.66
2022-11-17T22:35:16.182Z,99115.50
2022-11-17T22:38:18.684Z,99106.50
2022-11-17T22:41:21.885Z,99104.28
2022-11-17T22:44:24.995Z,99113.03
2022-11-17T22:47:27.582Z,99106.28
2022-11-17T22:50:29.991Z,99103.56
2022-11-17T22:53:33.092Z,99106.28
2022-11-17T22:56:35.702Z,99102.37
2022-11-17T22:59:38.600Z,99106.22
2022-11-17T23:02:40.886Z,99099.44
2022-11-17T23:05:43.399Z,99099.88
2022-11-17T23:08:45.807Z,99091.63
2022-11-17T23:11:49.381Z,99090.72
2022-11-17T23:14:51.582Z,99089.84
2022-11-17T23:17:54.390Z,99089.25
2022-11-17T23:20:56.717Z,99091.50
2022-11-17T23:23:59.265Z,99085.16
2022-11-17T23:27:01.499Z,99087.37
2022-11-17T23:30:04.097Z,99084.97
2022-11-17T23:33:06.391Z,99092.03
2022-11-17T23:36:12.863Z,99093.31
2022-11-17T23:39:15.502Z,99092.94
2022-11-17T23:42:18.087Z,99093.41
2022-11-17T23:45:20.377Z,99091.84
2022-11-17T23:48:23.417Z,99098.28
2022-11-17T23:51:26.398Z,99090.94
2022-11-17T23:54:28.959Z,99101.34
2022-11-17T23:57:31.761Z,99092.28
